• Join FlightAware (Why Join?)
  • Login
  • US Flag 
07:17PM EDT


 

Airport Tracker/Info


-or-


 

Live Flight TrackerFlight Track Log ✈ SWA1258 ✈ 30-Apr-2013 ✈ KMHT - KBWI

Flight Track Log - Related Links

Times and Time Zones

All times are in EDT time to prevent confusion due to time zone crossing. See the SWA1258 flight status page for this flight to view local times or setup timezone preferences in your user account.

Time Position Orientation Groundspeed Altitude Reporting Facility
EDT Latitude Longitude Course Direction KTS MPH feet Rate Location/Type
01:56PM 42.9167 -71.4167 201° Southwest 152 175 1,400  Level KA90
01:57PM 42.8836 -71.4342 201° Southwest 201 231 2,600 2,880 Climbing Boston Center
01:59PM 42.9139 -71.3175 70° East 199 229 9,000 3,120 Climbing Boston Center
02:00PM 42.9653 -71.2456 46° Northeast 240 276 12,000 3,360 Climbing Boston Center
02:01PM 43.0369 -71.1475 45° Northeast 303 349 15,800 3,300 Climbing Boston Center
02:02PM 43.0753 -71.0389 64° Northeast 341 392 18,600 2,940 Climbing Boston Center
02:03PM 43.0300 -70.9147 116° Southeast 308 354 21,700 2,820 Climbing Boston Center
02:04PM 42.9217 -70.9119 179° South 270 311 24,300 2,400 Climbing Boston Center
02:05PM 42.8119 -70.9656 200° South 319 367 26,500 2,100 Climbing Boston Center
02:06PM 42.6958 -71.0247 201° Southwest 382 440 28,600 2,220 Climbing Boston Center
02:07PM 42.6056 -71.1342 222° Southwest 420 483 31,000 2,160 Climbing Boston Center
02:08PM 42.5319 -71.2708 234° Southwest 430 495 33,000 1,500 Climbing Boston Center
02:09PM 42.4644 -71.4044 236° Southwest 437 503 34,000 480 Climbing Boston Center
02:10PM 42.3969 -71.5378 236° Southwest 437 503 34,000  Level Boston Center
02:11PM 42.3228 -71.6650 232° Southwest 437 503 34,000  Level Boston Center
02:12PM 42.2547 -71.7922 234° Southwest 437 503 34,000  Level Boston Center
02:13PM 42.1867 -71.9217 235° Southwest 432 497 34,000  Level Boston Center
02:14PM 42.1183 -72.0511 235° Southwest 432 497 34,000  Level Boston Center
02:15PM 42.0478 -72.1800 234° Southwest 432 497 34,000  Level Boston Center
02:16PM 41.9814 -72.3061 235° Southwest 432 497 34,000  Level Boston Center
02:17PM 41.9128 -72.4344 234° Southwest 432 497 34,000  Level Boston Center
02:18PM 41.8417 -72.5600 233° Southwest 432 497 34,000  Level Boston Center
02:19PM 41.7750 -72.6850 234° Southwest 427 491 34,000  Level Boston Center
02:20PM 41.7058 -72.8128 234° Southwest 427 491 34,000  Level Boston Center
02:21PM 41.6364 -72.9400 234° Southwest 432 497 34,000  Level Boston Center
02:22PM 41.5672 -73.0644 233° Southwest 432 497 34,000  Level Boston Center
02:23PM 41.5017 -73.1828 234° Southwest 426 490 34,000  Level Boston Center
02:24PM 41.4364 -73.3067 235° Southwest 426 490 34,000  Level Boston Center
02:25PM 41.3686 -73.4331 234° Southwest 426 490 34,000  Level Boston Center
02:27PM 41.1975 -73.7244 232° Southwest 419 482 34,000  Level New York Center
02:28PM 41.1300 -73.8425 233° Southwest 414 476 34,000  Level New York Center
02:29PM 41.0561 -73.9631 231° Southwest 414 476 34,000 -300 Level New York Center
02:30PM 40.9861 -74.0833 232° Southwest 414 476 33,400 -900 Descending New York Center
02:31PM 40.9053 -74.2111 230° Southwest 419 482 32,300 -1,140 Descending New York Center
02:32PM 40.8350 -74.3283 232° Southwest 419 482 31,200 -1,080 Descending New York Center
02:33PM 40.7650 -74.4453 232° Southwest 414 476 30,200 -1,020 Descending New York Center
02:34PM 40.6969 -74.5539 230° Southwest 409 471 29,200 -1,020 Descending New York Center
02:35PM 40.6308 -74.6650 232° Southwest 398 458 28,200 -600 Descending New York Center
02:36PM 40.5625 -74.7731 230° Southwest 393 452 28,000 -300 Descending New York Center
02:37PM 40.4903 -74.8753 227° Southwest 388 447 27,700 -660 Descending New York Center
02:38PM 40.4200 -74.9747 227° Southwest 383 441 26,700 -1,020 Descending New York Center
02:39PM 40.3478 -75.0739 226° Southwest 383 441 25,700 -1,020 Descending New York Center
02:40PM 40.2772 -75.1728 227° Southwest 378 435 24,700 -1,440 Descending New York Center
02:41PM 40.2111 -75.2692 228° Southwest 378 435 22,900 -1,920 Descending New York Center
02:42PM 40.1428 -75.3653 227° Southwest 373 429 20,900 -1,980 Descending New York Center
02:43PM 40.0725 -75.4556 225° Southwest 368 423 19,000 -1,500 Descending New York Center
02:44PM 40.0172 -75.5358 228° Southwest 350 403 18,000 -900 Descending New York Center
02:45PM 39.9444 -75.6311 225° Southwest 344 396 17,300 -900 Descending New York Center
02:46PM 39.8931 -75.7194 233° Southwest 338 389 16,300 -1,020 Descending New York Center
02:47PM 39.8383 -75.8264 236° Southwest 338 389 15,300 -1,080 Descending New York Center
02:49PM 39.7500 -75.9833 234° Southwest 322 371 13,600 -1,140 Descending Potomac TRACON
02:50PM 39.7000 -76.0833 237° Southwest 316 364 12,300 -900 Descending Potomac TRACON
02:51PM 39.6667 -76.1667 243° Southwest 297 342 11,900 -1,200 Descending Potomac TRACON
02:52PM 39.6167 -76.2667 237° Southwest 293 337 10,000 -1,500 Descending Potomac TRACON
02:53PM 39.5833 -76.3333 237° Southwest 281 323 8,900 -1,500 Descending Potomac TRACON
02:54PM 39.5500 -76.4333 247° West 282 325 7,200 -1,680 Descending Potomac TRACON
02:55PM 39.5000 -76.5167 232° Southwest 280 322 5,600 -1,560 Descending Potomac TRACON
02:56PM 39.4667 -76.6167 247° West 279 321 4,100 -840 Descending Potomac TRACON
02:57PM 39.4333 -76.7000 243° Southwest 272 313 4,000 -60 Descending Potomac TRACON
02:58PM 39.4000 -76.7667 237° Southwest 265 305 4,000  Level Potomac TRACON
02:59PM 39.3667 -76.8500 243° Southwest 235 270 4,000  Level Potomac TRACON
03:00PM 39.3167 -76.9000 218° Southwest 236 272 4,000 -60 Level Potomac TRACON
03:01PM 39.2667 -76.9167 194° South 192 221 3,900 -540 Descending Potomac TRACON
03:02PM 39.2167 -76.9167 180° South 177 204 3,000 -900 Descending Potomac TRACON
03:03PM 39.1833 -76.8833 142° Southeast 165 190 2,100 -540 Descending Potomac TRACON
03:04PM 39.1833 -76.8333 90° East 158 182 2,000 -300 Descending Potomac TRACON
03:05PM 39.1833 -76.7833 90° East 140 161 1,500 -600 Descending Potomac TRACON
03:06PM 39.1833 -76.7333 90° East 123 142 900 -600 Descending Potomac TRACON
03:08PM 39.1667 -76.6667 270° West  Level FlightAware Approximate
03:15PM 39.1754 -76.6683 270° West  Level Estimated
03:16PM 39.1754 -76.6683 270° West  Level Estimated
03:17PM 39.1754 -76.6683 270° West  Level Estimated
03:18PM 39.1754 -76.6683 270° West  Level Estimated
03:19PM 39.1754 -76.6683 270° West  Level Estimated